AFR13 LFML-LFMP
Flight info
| Callsign | AFR13 |
|---|---|
| Flight time | N/A |
| Altitude | 23000 |
| Route | FJR |
| Aircraft | A319/M-SDE3FGHIRWY/LB1 |
Departure
| Time | 2026-05-08 07:00 |
|---|---|
| Airport | Marseille Provence Airport (LFML) |
Arrival
| Time | N/A |
|---|---|
| Airport | Perpignan-Rivesaltes (Llabanère) Airport (LFMP) |
| Time | Latitude | Longitude | Altitude | Speed | Heading |
|---|---|---|---|---|---|
| 2026-05-08 06:31 | 43.44049 | 5.21839 | 35 ft | 0 kts | 44° |
| 2026-05-08 06:50 | 43.44052 | 5.21843 | 8 ft | 2 kts | 44° |
| 2026-05-08 06:50 | 43.44082 | 5.21855 | 35 ft | 8 kts | 355° |
| 2026-05-08 06:50 | 43.44093 | 5.21782 | 33 ft | 10 kts | 229° |
| 2026-05-08 06:50 | 43.44038 | 5.21706 | 33 ft | 11 kts | 225° |
| 2026-05-08 06:51 | 43.43989 | 5.21639 | 33 ft | 10 kts | 224° |
| 2026-05-08 06:51 | 43.43938 | 5.21572 | 34 ft | 9 kts | 223° |
| 2026-05-08 06:51 | 43.43918 | 5.21510 | 33 ft | 6 kts | 270° |
| 2026-05-08 06:51 | 43.43927 | 5.21478 | 33 ft | 3 kts | 297° |
| 2026-05-08 06:52 | 43.43935 | 5.21466 | 32 ft | 1 kts | 314° |
| 2026-05-08 06:52 | 43.43938 | 5.21463 | 31 ft | 2 kts | 314° |
| 2026-05-08 06:52 | 43.43971 | 5.21412 | 31 ft | 12 kts | 312° |
| 2026-05-08 06:52 | 43.44053 | 5.21295 | 28 ft | 20 kts | 314° |
| 2026-05-08 06:53 | 43.44150 | 5.21156 | 24 ft | 19 kts | 313° |
| 2026-05-08 06:53 | 43.44247 | 5.21012 | 20 ft | 21 kts | 313° |
| 2026-05-08 06:53 | 43.44333 | 5.20831 | 18 ft | 23 kts | 308° |
| 2026-05-08 06:53 | 43.44447 | 5.20662 | 18 ft | 24 kts | 314° |
| 2026-05-08 06:54 | 43.44566 | 5.20492 | 18 ft | 25 kts | 314° |
| 2026-05-08 06:54 | 43.44622 | 5.20413 | 18 ft | 0 kts | 314° |
| 2026-05-08 06:57 | 43.44628 | 5.20403 | 18 ft | 4 kts | 314° |
| 2026-05-08 06:57 | 43.44670 | 5.20344 | 18 ft | 13 kts | 314° |
| 2026-05-08 06:58 | 43.44739 | 5.20248 | 18 ft | 15 kts | 314° |
| 2026-05-08 06:58 | 43.44823 | 5.20129 | 17 ft | 19 kts | 314° |
| 2026-05-08 06:58 | 43.44919 | 5.19995 | 17 ft | 18 kts | 314° |
| 2026-05-08 06:58 | 43.44976 | 5.19852 | 17 ft | 18 kts | 256° |
| 2026-05-08 06:59 | 43.44873 | 5.19799 | 18 ft | 18 kts | 154° |
| 2026-05-08 06:59 | 43.44832 | 5.19848 | 17 ft | 1 kts | 135° |
| 2026-05-08 06:59 | 43.44668 | 5.20081 | 18 ft | 77 kts | 134° |
| 2026-05-08 06:59 | 43.44118 | 5.20861 | 20 ft | 146 kts | 134° |
| 2026-05-08 07:00 | 43.43322 | 5.22019 | 275 ft | 178 kts | 133° |
| 2026-05-08 07:00 | 43.42446 | 5.23186 | 1157 ft | 173 kts | 140° |
| 2026-05-08 07:00 | 43.41790 | 5.23802 | 1717 ft | 172 kts | 150° |
| 2026-05-08 07:00 | 43.40255 | 5.24697 | 2527 ft | 192 kts | 154° |
| 2026-05-08 07:01 | 43.39455 | 5.25314 | 2822 ft | 207 kts | 148° |
| 2026-05-08 07:01 | 43.38212 | 5.26430 | 3499 ft | 217 kts | 145° |
| 2026-05-08 07:01 | 43.36531 | 5.27987 | 4788 ft | 221 kts | 146° |
| 2026-05-08 07:01 | 43.35110 | 5.28748 | 5832 ft | 227 kts | 174° |
| 2026-05-08 07:02 | 43.33547 | 5.28325 | 6634 ft | 243 kts | 208° |
| 2026-05-08 07:02 | 43.32281 | 5.26624 | 7116 ft | 270 kts | 234° |
| 2026-05-08 07:02 | 43.31556 | 5.25198 | 7612 ft | 278 kts | 236° |
| 2026-05-08 07:02 | 43.30464 | 5.22926 | 8587 ft | 284 kts | 237° |
| 2026-05-08 07:03 | 43.29381 | 5.20637 | 9631 ft | 287 kts | 236° |
| 2026-05-08 07:03 | 43.28273 | 5.18315 | 10441 ft | 299 kts | 236° |
| 2026-05-08 07:03 | 43.27093 | 5.15879 | 10826 ft | 323 kts | 236° |
| 2026-05-08 07:03 | 43.25790 | 5.13225 | 11417 ft | 337 kts | 236° |
| 2026-05-08 07:04 | 43.24480 | 5.10577 | 12265 ft | 342 kts | 236° |
| 2026-05-08 07:04 | 43.23459 | 5.07623 | 13104 ft | 347 kts | 254° |
| 2026-05-08 07:04 | 43.22906 | 5.04384 | 13983 ft | 350 kts | 257° |
| 2026-05-08 07:04 | 43.22377 | 5.01123 | 14770 ft | 353 kts | 257° |
| 2026-05-08 07:05 | 43.21844 | 4.97826 | 15529 ft | 356 kts | 257° |
| 2026-05-08 07:05 | 43.21301 | 4.94498 | 16287 ft | 360 kts | 257° |
| 2026-05-08 07:05 | 43.20755 | 4.91166 | 17014 ft | 364 kts | 257° |
| 2026-05-08 07:05 | 43.20195 | 4.87764 | 17748 ft | 368 kts | 256° |
| 2026-05-08 07:06 | 43.19626 | 4.84324 | 18452 ft | 373 kts | 256° |
| 2026-05-08 07:06 | 43.19069 | 4.80963 | 18859 ft | 375 kts | 256° |
| 2026-05-08 07:06 | 43.18486 | 4.77467 | 18994 ft | 375 kts | 256° |
| 2026-05-08 07:06 | 43.17904 | 4.73980 | 19019 ft | 375 kts | 256° |
| 2026-05-08 07:07 | 43.17322 | 4.70491 | 19021 ft | 375 kts | 256° |
| 2026-05-08 07:07 | 43.16745 | 4.67013 | 19023 ft | 375 kts | 256° |
| 2026-05-08 07:07 | 43.16017 | 4.63600 | 19020 ft | 374 kts | 248° |
| 2026-05-08 07:07 | 43.15055 | 4.60281 | 18846 ft | 374 kts | 248° |
| 2026-05-08 07:08 | 43.14093 | 4.56968 | 18615 ft | 375 kts | 248° |
| 2026-05-08 07:08 | 43.13146 | 4.53706 | 18395 ft | 375 kts | 248° |
| 2026-05-08 07:08 | 43.12178 | 4.50380 | 18130 ft | 374 kts | 248° |
| 2026-05-08 07:08 | 43.11213 | 4.47074 | 17860 ft | 373 kts | 248° |
| 2026-05-08 07:09 | 43.10252 | 4.43788 | 17596 ft | 371 kts | 248° |
| 2026-05-08 07:09 | 43.09291 | 4.40514 | 17327 ft | 370 kts | 248° |
| 2026-05-08 07:09 | 43.08337 | 4.37264 | 17061 ft | 368 kts | 248° |
| 2026-05-08 07:09 | 43.07384 | 4.34018 | 16808 ft | 367 kts | 248° |
| 2026-05-08 07:10 | 43.06434 | 4.30778 | 16547 ft | 366 kts | 248° |
| 2026-05-08 07:10 | 43.05491 | 4.27564 | 16289 ft | 364 kts | 248° |
| 2026-05-08 07:10 | 43.04545 | 4.24353 | 16073 ft | 363 kts | 248° |
| 2026-05-08 07:10 | 43.03603 | 4.21161 | 16016 ft | 362 kts | 248° |
| 2026-05-08 07:11 | 43.02660 | 4.17971 | 16038 ft | 363 kts | 248° |
| 2026-05-08 07:11 | 43.01714 | 4.14782 | 16029 ft | 363 kts | 248° |
| 2026-05-08 07:11 | 43.00766 | 4.11596 | 16026 ft | 363 kts | 248° |
| 2026-05-08 07:11 | 42.99816 | 4.08399 | 16029 ft | 363 kts | 248° |
| 2026-05-08 07:12 | 42.98868 | 4.05204 | 16030 ft | 363 kts | 248° |
| 2026-05-08 07:12 | 42.97919 | 4.02003 | 16030 ft | 363 kts | 248° |
| 2026-05-08 07:12 | 42.96971 | 3.98812 | 16025 ft | 363 kts | 248° |
| 2026-05-08 07:12 | 42.96021 | 3.95624 | 16023 ft | 362 kts | 248° |
| 2026-05-08 07:13 | 42.95069 | 3.92440 | 16035 ft | 362 kts | 248° |
| 2026-05-08 07:13 | 42.94119 | 3.89256 | 16024 ft | 362 kts | 248° |
| 2026-05-08 07:13 | 42.93169 | 3.86067 | 16024 ft | 362 kts | 248° |
| 2026-05-08 07:13 | 42.92217 | 3.82878 | 16025 ft | 362 kts | 248° |
| 2026-05-08 07:14 | 42.91265 | 3.79703 | 16031 ft | 362 kts | 248° |
| 2026-05-08 07:14 | 42.90322 | 3.76564 | 15952 ft | 362 kts | 248° |
| 2026-05-08 07:14 | 42.89366 | 3.73385 | 15694 ft | 361 kts | 248° |
| 2026-05-08 07:14 | 42.88418 | 3.70236 | 15450 ft | 359 kts | 248° |
| 2026-05-08 07:15 | 42.87471 | 3.67097 | 15194 ft | 358 kts | 247° |
| 2026-05-08 07:15 | 42.86529 | 3.63979 | 14824 ft | 352 kts | 247° |
| 2026-05-08 07:15 | 42.85597 | 3.60902 | 14320 ft | 350 kts | 247° |
| 2026-05-08 07:15 | 42.84673 | 3.57847 | 13802 ft | 347 kts | 247° |
| 2026-05-08 07:16 | 42.83755 | 3.54815 | 13245 ft | 345 kts | 247° |
| 2026-05-08 07:16 | 42.82844 | 3.51801 | 12725 ft | 341 kts | 247° |
| 2026-05-08 07:16 | 42.81946 | 3.48832 | 12202 ft | 338 kts | 247° |
| 2026-05-08 07:16 | 42.81051 | 3.45885 | 11673 ft | 336 kts | 247° |
| 2026-05-08 07:17 | 42.80157 | 3.42956 | 11149 ft | 334 kts | 246° |
| 2026-05-08 07:17 | 42.79270 | 3.40052 | 10637 ft | 332 kts | 246° |
| 2026-05-08 07:17 | 42.78399 | 3.37201 | 10502 ft | 319 kts | 246° |
| 2026-05-08 07:17 | 42.77565 | 3.34468 | 10363 ft | 306 kts | 246° |
| 2026-05-08 07:18 | 42.76762 | 3.31835 | 10155 ft | 298 kts | 246° |
| 2026-05-08 07:18 | 42.75970 | 3.29249 | 9926 ft | 294 kts | 246° |
| 2026-05-08 07:18 | 42.75182 | 3.26683 | 9800 ft | 293 kts | 246° |
| 2026-05-08 07:18 | 42.74397 | 3.24125 | 9602 ft | 294 kts | 246° |
| 2026-05-08 07:19 | 42.73618 | 3.21587 | 9126 ft | 294 kts | 246° |
| 2026-05-08 07:19 | 42.72825 | 3.19004 | 8727 ft | 289 kts | 246° |
| 2026-05-08 07:19 | 42.72062 | 3.16520 | 8088 ft | 286 kts | 246° |
| 2026-05-08 07:19 | 42.71183 | 3.14146 | 7543 ft | 278 kts | 232° |
| 2026-05-08 07:20 | 42.69808 | 3.12339 | 7060 ft | 274 kts | 212° |
| 2026-05-08 07:20 | 42.68075 | 3.11317 | 6570 ft | 273 kts | 192° |
| 2026-05-08 07:20 | 42.66196 | 3.11165 | 6078 ft | 271 kts | 175° |
| 2026-05-08 07:20 | 42.64357 | 3.11381 | 5612 ft | 256 kts | 174° |
| 2026-05-08 07:21 | 42.63765 | 3.11454 | 5566 ft | 247 kts | 174° |
| 2026-05-08 07:21 | 42.63495 | 3.11487 | 5531 ft | 244 kts | 174° |
| 2026-05-08 07:21 | 42.63327 | 3.11508 | 5503 ft | 242 kts | 174° |